Archival Weather

Snohomish County (Paine Fld)

Everett, Washington (KPAE)

Report from: Tuesday, May 21, 2024 6:53 AM PDT
Current time: Saturday, June 22, 2024 3:06 AM PDT

Current weather – Weather history – Daily summaries
Weather forecast

Temperature10.0°C (50.0°F)
Wind chill7.4°C (45.2°F)
Dew point6.1°C (43.0°F)
Winds 11 kts (5.7 m/s, 12.7 mph) South-Southeast (160°)
Visibility10 mi. (16.1 km)
Clouds Ceiling: Broken clouds 1,500 ft. (457 m)
Broken clouds 1,900 ft. (579 m)
Overcast 6,500 ft. (1,981 m)
Altimeter30.13 in.Hg (1020 mB)
Relative humidity77 %
Density altitude-697 ft. (-212 m)
Sea-level pressure102.0 kPa (1020 mB, 30.13 in.Hg)
Remarks Automated weather observing station with precipitation discriminator
Flight conditions Marginal Visual Meteorological Conditions
Raw dataKPAE 211353Z 16011KT 10SM BKN015 BKN019 OVC065 10/06 A3013 RMK AO2 SLP202 T01000061
An error has occurred. This application may no longer respond until reloaded. Reload 🗙